createdAt,value
2023-01-13T00:01:47.830Z,56.28
2023-01-13T00:04:35.615Z,50.47
2023-01-13T00:07:20.973Z,54.63
2023-01-13T00:10:11.659Z,61.37
2023-01-13T00:12:56.867Z,50.28
2023-01-13T00:15:42.176Z,53.67
2023-01-13T00:18:27.715Z,57.05
2023-01-13T00:21:15.938Z,50.97
2023-01-13T00:24:01.627Z,49.55
2023-01-13T00:26:47.004Z,55.25
2023-01-13T00:29:32.177Z,50.75
2023-01-13T00:32:17.432Z,52.08
2023-01-13T00:35:02.450Z,45.70
2023-01-13T00:37:47.786Z,47.88
2023-01-13T00:40:33.158Z,43.22
2023-01-13T00:43:24.014Z,57.53
2023-01-13T00:46:10.902Z,42.92
2023-01-13T00:48:56.207Z,38.05
2023-01-13T00:51:41.371Z,47.72
2023-01-13T00:54:26.721Z,47.40
2023-01-13T00:57:12.013Z,51.85
2023-01-13T00:59:59.187Z,64.55
2023-01-13T01:02:44.545Z,71.30
2023-01-13T01:05:30.212Z,64.30
2023-01-13T01:08:15.351Z,61.55
2023-01-13T01:11:02.535Z,60.03
2023-01-13T01:13:49.472Z,58.65
2023-01-13T01:16:35.194Z,67.37
2023-01-13T01:19:20.637Z,77.57
2023-01-13T01:22:05.893Z,77.05
2023-01-13T01:24:51.365Z,70.10
2023-01-13T01:27:36.675Z,66.53
2023-01-13T01:30:27.741Z,54.45
2023-01-13T01:33:16.792Z,57.90
2023-01-13T01:36:03.102Z,53.47
2023-01-13T01:38:49.176Z,51.60
2023-01-13T01:41:35.711Z,49.35
2023-01-13T01:44:42.863Z,42.72
2023-01-13T01:47:29.960Z,42.85
2023-01-13T01:50:15.861Z,41.90
2023-01-13T01:53:13.189Z,42.08
2023-01-13T01:55:59.753Z,29.58
2023-01-13T01:58:52.256Z,40.12
2023-01-13T02:01:38.633Z,38.92
2023-01-13T02:04:28.197Z,35.15
2023-01-13T02:07:13.718Z,36.60
2023-01-13T02:10:01.929Z,35.63
2023-01-13T02:12:48.254Z,35.00
2023-01-13T02:15:50.093Z,38.03
2023-01-13T02:18:48.709Z,27.75
2023-01-13T02:22:00.781Z,43.53
2023-01-13T02:25:01.526Z,40.50
2023-01-13T02:27:59.165Z,36.00
2023-01-13T02:31:05.974Z,34.65
2023-01-13T02:33:54.256Z,26.05
2023-01-13T02:36:50.593Z,28.45
2023-01-13T02:39:57.437Z,32.55
2023-01-13T02:43:36.828Z,27.00
2023-01-13T02:46:28.402Z,24.37
2023-01-13T02:49:19.727Z,38.90
2023-01-13T02:52:16.008Z,43.38
2023-01-13T02:55:30.959Z,53.28
2023-01-13T02:58:19.105Z,28.10
2023-01-13T03:01:04.374Z,50.63
2023-01-13T03:03:50.141Z,48.60
2023-01-13T03:07:12.928Z,43.40
2023-01-13T03:10:19.325Z,36.05
2023-01-13T03:13:42.320Z,27.48
2023-01-13T03:16:31.509Z,27.67
2023-01-13T03:19:31.265Z,19.37
2023-01-13T03:22:31.289Z,20.85
2023-01-13T03:25:24.036Z,20.30
2023-01-13T03:28:12.953Z,18.02
2023-01-13T03:31:03.931Z,17.62
2023-01-13T03:33:55.695Z,15.63
2023-01-13T03:36:41.074Z,18.37
2023-01-13T03:39:31.462Z,14.77
2023-01-13T03:42:29.319Z,17.60
2023-01-13T03:45:16.881Z,15.93
2023-01-13T03:48:07.399Z,16.62
2023-01-13T03:50:54.260Z,16.08
2023-01-13T03:53:43.822Z,17.08
2023-01-13T03:56:39.496Z,20.40
2023-01-13T03:59:28.067Z,20.20
2023-01-13T04:02:37.883Z,22.58
2023-01-13T04:05:23.683Z,20.60
2023-01-13T04:08:21.691Z,23.75
2023-01-13T04:11:14.964Z,27.73
2023-01-13T04:14:01.652Z,27.20
2023-01-13T04:16:47.776Z,28.60
2023-01-13T04:19:33.179Z,25.42
2023-01-13T04:22:18.568Z,23.35
2023-01-13T04:25:04.535Z,16.95
2023-01-13T04:27:49.630Z,17.98
2023-01-13T04:30:35.057Z,21.70
2023-01-13T04:33:20.691Z,59.45
2023-01-13T04:36:06.477Z,17.85
2023-01-13T04:38:51.733Z,20.17
2023-01-13T04:41:55.856Z,18.27
2023-01-13T04:44:41.055Z,21.60
2023-01-13T04:47:26.219Z,28.33
2023-01-13T04:50:11.841Z,25.27
2023-01-13T04:52:57.430Z,24.02
2023-01-13T04:55:44.531Z,24.00
2023-01-13T04:58:29.571Z,25.95
2023-01-13T05:01:15.451Z,25.37
2023-01-13T05:04:00.674Z,20.05
2023-01-13T05:06:46.040Z,18.12
2023-01-13T05:09:31.370Z,23.08
2023-01-13T05:12:35.553Z,19.08
2023-01-13T05:15:39.418Z,23.50
2023-01-13T05:21:30.813Z,25.10
2023-01-13T05:24:34.446Z,22.15
2023-01-13T05:27:19.647Z,25.40
2023-01-13T05:30:06.384Z,23.30
2023-01-13T05:32:51.563Z,22.80
2023-01-13T05:35:41.011Z,24.02
2023-01-13T05:38:26.297Z,24.10
2023-01-13T05:41:30.669Z,24.83
2023-01-13T05:47:01.412Z,16.90
2023-01-13T05:49:46.474Z,17.85
2023-01-13T05:52:32.584Z,21.25
2023-01-13T05:55:17.884Z,25.37
2023-01-13T05:58:03.627Z,28.73
2023-01-13T06:00:49.181Z,24.45
2023-01-13T06:03:35.962Z,23.17
2023-01-13T06:06:21.272Z,23.35
2023-01-13T06:09:06.641Z,26.42
2023-01-13T06:11:52.272Z,20.88
2023-01-13T06:14:40.392Z,26.83
2023-01-13T06:17:25.616Z,26.30
2023-01-13T06:20:13.362Z,27.00
2023-01-13T06:22:59.674Z,25.62
2023-01-13T06:25:47.443Z,18.62
2023-01-13T06:28:33.501Z,23.38
2023-01-13T06:31:19.174Z,21.85
2023-01-13T06:34:11.142Z,21.12
2023-01-13T06:36:56.764Z,29.45
2023-01-13T06:39:42.739Z,28.48
2023-01-13T06:42:49.064Z,27.00
2023-01-13T06:45:35.062Z,23.60
2023-01-13T06:48:24.449Z,32.53
2023-01-13T06:51:09.595Z,30.05
2023-01-13T06:53:54.889Z,28.80
2023-01-13T06:56:40.597Z,34.28
2023-01-13T06:59:31.198Z,39.65
2023-01-13T07:02:16.623Z,35.95
2023-01-13T07:05:01.766Z,37.58
2023-01-13T07:07:47.793Z,38.38
2023-01-13T07:10:33.946Z,32.83
2023-01-13T07:13:38.829Z,38.63
2023-01-13T07:16:25.881Z,41.10
2023-01-13T07:19:12.019Z,39.95
2023-01-13T07:21:57.159Z,36.40
2023-01-13T07:24:43.825Z,36.40
2023-01-13T07:27:29.541Z,34.25
2023-01-13T07:30:15.072Z,31.02
2023-01-13T07:33:00.408Z,34.67
2023-01-13T07:35:46.879Z,34.08
2023-01-13T07:38:33.986Z,40.00
2023-01-13T07:41:38.230Z,32.97
2023-01-13T07:47:13.993Z,34.78
2023-01-13T07:49:59.820Z,37.78
2023-01-13T07:52:45.124Z,33.13
2023-01-13T07:55:30.431Z,42.05
2023-01-13T07:58:15.973Z,33.72
2023-01-13T08:01:07.938Z,32.13
2023-01-13T08:03:54.953Z,24.60
2023-01-13T08:06:41.517Z,29.83
2023-01-13T08:09:27.026Z,29.15
2023-01-13T08:12:30.886Z,29.48
2023-01-13T08:15:16.564Z,29.58
2023-01-13T08:18:02.108Z,26.27
2023-01-13T08:20:48.857Z,29.98
2023-01-13T08:26:19.527Z,23.00
2023-01-13T08:29:04.656Z,26.45
2023-01-13T08:31:50.125Z,25.62
2023-01-13T08:34:36.168Z,26.87
2023-01-13T08:37:21.364Z,27.40
2023-01-13T08:40:13.545Z,30.25
2023-01-13T08:42:59.706Z,29.45
2023-01-13T08:45:45.053Z,27.58
2023-01-13T08:48:31.833Z,25.48
2023-01-13T08:51:17.593Z,30.45
2023-01-13T08:54:03.378Z,27.55
2023-01-13T08:56:49.044Z,26.62
2023-01-13T08:59:34.998Z,29.55
2023-01-13T09:02:22.324Z,33.40
2023-01-13T09:05:08.396Z,28.08
2023-01-13T09:07:53.632Z,26.77
2023-01-13T09:10:40.597Z,36.40
2023-01-13T09:13:26.114Z,28.23
2023-01-13T09:16:11.433Z,30.45
2023-01-13T09:18:56.840Z,27.02
2023-01-13T09:21:42.731Z,24.48
2023-01-13T09:24:28.219Z,27.73
2023-01-13T09:27:15.217Z,34.65
2023-01-13T09:30:00.487Z,26.60
2023-01-13T09:32:45.872Z,33.50
2023-01-13T09:35:31.217Z,29.45
2023-01-13T09:38:17.293Z,35.25
2023-01-13T09:41:23.099Z,38.50
2023-01-13T09:44:14.616Z,32.08
2023-01-13T09:47:04.302Z,31.10
2023-01-13T09:49:50.884Z,34.05
2023-01-13T09:52:36.804Z,27.95
2023-01-13T09:55:36.950Z,29.87
2023-01-13T09:58:22.911Z,31.83
2023-01-13T10:01:23.679Z,24.27
2023-01-13T10:04:13.491Z,22.40
2023-01-13T10:07:03.095Z,23.65
2023-01-13T10:09:52.951Z,26.37
2023-01-13T10:12:57.203Z,27.80
2023-01-13T10:16:26.523Z,32.20
2023-01-13T10:19:34.994Z,25.75
2023-01-13T10:22:46.045Z,28.95
2023-01-13T10:25:54.080Z,27.05
2023-01-13T10:28:39.985Z,26.42
2023-01-13T10:31:26.205Z,26.48
2023-01-13T10:34:12.085Z,27.20
2023-01-13T10:37:08.352Z,26.10
2023-01-13T10:39:57.870Z,23.45
2023-01-13T10:42:43.481Z,22.23
2023-01-13T10:45:28.842Z,25.35
2023-01-13T10:48:17.249Z,36.35
2023-01-13T10:51:18.900Z,21.12
2023-01-13T10:54:23.050Z,26.23
2023-01-13T10:57:23.315Z,20.90
2023-01-13T11:00:26.436Z,20.35
2023-01-13T11:03:19.067Z,28.33
2023-01-13T11:06:04.806Z,27.13
2023-01-13T11:08:55.253Z,20.77
2023-01-13T11:11:43.391Z,21.73
2023-01-13T11:14:45.232Z,24.45
2023-01-13T11:18:00.472Z,24.17
2023-01-13T11:20:47.944Z,23.92
2023-01-13T11:23:41.781Z,21.23
2023-01-13T11:26:40.909Z,22.37
2023-01-13T11:29:43.124Z,23.48
2023-01-13T11:32:31.749Z,27.33
2023-01-13T11:35:18.965Z,29.83
2023-01-13T11:38:28.764Z,26.52
2023-01-13T11:41:21.542Z,34.40
2023-01-13T11:44:09.927Z,26.75
2023-01-13T11:46:55.268Z,26.12
2023-01-13T11:49:41.085Z,28.23
2023-01-13T11:53:01.675Z,27.65
2023-01-13T11:55:54.587Z,26.23
2023-01-13T11:59:14.312Z,28.12
2023-01-13T12:02:14.860Z,23.27
2023-01-13T12:05:26.796Z,26.05
2023-01-13T12:08:35.748Z,30.17
2023-01-13T12:12:02.490Z,27.23
2023-01-13T12:14:58.399Z,22.60
2023-01-13T12:18:20.939Z,29.75
2023-01-13T12:21:18.679Z,33.75
2023-01-13T12:24:19.096Z,35.10
2023-01-13T12:27:11.967Z,28.83
2023-01-13T12:29:59.802Z,29.17
